Time,TemperatureF,DewpointF,PressureIn,WindDirection,WindDirectionDegrees,WindSpeedMPH,WindSpeedGustMPH,Humidity,HourlyPrecipIn,Conditions,Clouds,dailyrainin,SolarRadiationWatts/m^2,SoftwareType,DateUTC
2013-04-06 00:03:00,51.0,17.0,-100.00,NE,42,4.0,15.0,26,0.00,,,0.00,0.000000,,2013-04-06 04:03:00,
2013-04-06 00:14:00,51.0,17.0,-100.00,NE,42,4.0,15.0,26,0.00,,,0.00,0.000000,,2013-04-06 04:14:00,
2013-04-06 00:23:00,51.0,17.0,-100.00,NE,42,4.0,15.0,26,0.00,,,0.00,0.000000,,2013-04-06 04:23:00,
2013-04-06 00:32:00,51.0,17.0,-100.00,NE,42,4.0,15.0,26,0.00,,,0.00,0.000000,,2013-04-06 04:32:00,
2013-04-06 00:53:00,47.0,17.0,-100.00,SE,129,6.0,7.0,30,0.00,,,0.00,0.000000,,2013-04-06 04:53:00,
2013-04-06 01:02:00,47.0,17.0,-100.00,SE,129,6.0,7.0,30,0.00,,,0.00,0.000000,,2013-04-06 05:02:00,
2013-04-06 01:13:00,47.0,17.0,-100.00,SE,129,6.0,7.0,30,0.00,,,0.00,0.000000,,2013-04-06 05:13:00,
2013-04-06 01:22:00,47.0,17.0,-100.00,SE,129,6.0,7.0,30,0.00,,,0.00,0.000000,,2013-04-06 05:22:00,
2013-04-06 01:32:00,47.0,17.0,-100.00,SE,129,6.0,7.0,30,0.00,,,0.00,0.000000,,2013-04-06 05:32:00,
2013-04-06 01:52:00,44.0,17.0,-100.00,SSE,157,2.0,7.0,34,0.00,,,0.00,0.000000,,2013-04-06 05:52:00,
2013-04-06 02:03:00,44.0,17.0,-100.00,SSE,157,2.0,7.0,34,0.00,,,0.00,0.000000,,2013-04-06 06:03:00,
2013-04-06 02:12:00,44.0,17.0,-100.00,SSE,157,2.0,7.0,34,0.00,,,0.00,0.000000,,2013-04-06 06:12:00,
2013-04-06 02:22:00,44.0,17.0,-100.00,SSE,157,2.0,7.0,34,0.00,,,0.00,0.000000,,2013-04-06 06:22:00,
2013-04-06 02:32:00,44.0,17.0,-100.00,SSE,157,2.0,7.0,34,0.00,,,0.00,0.000000,,2013-04-06 06:32:00,
2013-04-06 02:53:00,42.0,18.0,-100.00,East,91,3.0,4.0,37,0.00,,,0.00,0.000000,,2013-04-06 06:53:00,
2013-04-06 03:03:00,42.0,18.0,-100.00,East,91,3.0,4.0,37,0.00,,,0.00,0.000000,,2013-04-06 07:03:00,
2013-04-06 03:12:00,42.0,18.0,-100.00,East,91,3.0,4.0,37,0.00,,,0.00,0.000000,,2013-04-06 07:12:00,
2013-04-06 03:22:00,42.0,18.0,-100.00,East,91,3.0,4.0,37,0.00,,,0.00,0.000000,,2013-04-06 07:22:00,
2013-04-06 03:33:00,42.0,18.0,-100.00,East,91,3.0,4.0,37,0.00,,,0.00,0.000000,,2013-04-06 07:33:00,
2013-04-06 03:53:00,43.0,18.0,-100.00,East,79,2.0,7.0,36,0.00,,,0.00,0.000000,,2013-04-06 07:53:00,
2013-04-06 04:02:00,43.0,18.0,-100.00,East,79,2.0,7.0,36,0.00,,,0.00,0.000000,,2013-04-06 08:02:00,
2013-04-06 04:13:00,43.0,18.0,-100.00,East,79,2.0,7.0,36,0.00,,,0.00,0.000000,,2013-04-06 08:13:00,
2013-04-06 04:22:00,43.0,18.0,-100.00,East,79,2.0,7.0,36,0.00,,,0.00,0.000000,,2013-04-06 08:22:00,
2013-04-06 04:32:00,43.0,18.0,-100.00,East,79,2.0,7.0,36,0.00,,,0.00,0.000000,,2013-04-06 08:32:00,
2013-04-06 04:52:00,41.0,17.0,-100.00,ESE,122,3.0,7.0,38,0.00,,,0.00,0.000000,,2013-04-06 08:52:00,
2013-04-06 05:02:00,41.0,17.0,-100.00,ESE,122,3.0,7.0,38,0.00,,,0.00,0.000000,,2013-04-06 09:02:00,
2013-04-06 05:12:00,41.0,17.0,-100.00,ESE,122,3.0,7.0,38,0.00,,,0.00,0.000000,,2013-04-06 09:12:00,
2013-04-06 05:22:00,41.0,17.0,-100.00,ESE,122,3.0,7.0,38,0.00,,,0.00,0.000000,,2013-04-06 09:22:00,
2013-04-06 05:32:00,41.0,17.0,-100.00,ESE,122,3.0,7.0,38,0.00,,,0.00,0.000000,,2013-04-06 09:32:00,
2013-04-06 05:53:00,39.0,16.0,-100.00,SE,137,5.0,9.0,38,0.00,,,0.00,0.000000,,2013-04-06 09:53:00,
2013-04-06 06:03:00,39.0,16.0,-100.00,SE,137,5.0,9.0,38,0.00,,,0.00,0.000000,,2013-04-06 10:03:00,
2013-04-06 06:13:00,39.0,16.0,-100.00,SE,137,5.0,9.0,38,0.00,,,0.00,0.000000,,2013-04-06 10:13:00,
2013-04-06 06:23:00,39.0,16.0,-100.00,SE,137,5.0,9.0,38,0.00,,,0.00,0.000000,,2013-04-06 10:23:00,
2013-04-06 06:33:00,39.0,16.0,-100.00,SE,137,5.0,9.0,38,0.00,,,0.00,0.000000,,2013-04-06 10:33:00,
2013-04-06 06:53:00,38.0,17.0,-100.00,South,185,6.0,11.0,42,0.00,,,0.00,0.000000,,2013-04-06 10:53:00,
2013-04-06 07:02:00,38.0,17.0,-100.00,South,185,6.0,11.0,42,0.00,,,0.00,0.000000,,2013-04-06 11:02:00,
2013-04-06 07:12:00,38.0,17.0,-100.00,South,185,6.0,11.0,42,0.00,,,0.00,0.000000,,2013-04-06 11:12:00,
2013-04-06 07:23:00,38.0,17.0,-100.00,South,185,6.0,11.0,42,0.00,,,0.00,0.000000,,2013-04-06 11:23:00,
2013-04-06 07:33:00,38.0,17.0,-100.00,South,185,6.0,11.0,42,0.00,,,0.00,0.000000,,2013-04-06 11:33:00,
2013-04-06 07:53:00,36.0,21.0,-100.00,SSE,166,6.0,7.0,54,0.00,,,0.00,0.000000,,2013-04-06 11:53:00,
2013-04-06 08:02:00,36.0,21.0,-100.00,SSE,166,6.0,7.0,54,0.00,,,0.00,0.000000,,2013-04-06 12:02:00,
2013-04-06 08:12:00,36.0,21.0,-100.00,SSE,166,6.0,7.0,54,0.00,,,0.00,0.000000,,2013-04-06 12:12:00,
2013-04-06 08:22:00,36.0,21.0,-100.00,SSE,166,6.0,7.0,54,0.00,,,0.00,0.000000,,2013-04-06 12:22:00,
2013-04-06 08:32:00,36.0,21.0,-100.00,SSE,166,6.0,7.0,54,0.00,,,0.00,0.000000,,2013-04-06 12:32:00,
2013-04-06 08:53:00,35.0,23.0,-100.00,SSE,162,5.0,7.0,62,0.00,,,0.00,0.000000,,2013-04-06 12:53:00,
2013-04-06 09:03:00,35.0,23.0,-100.00,SSE,162,5.0,7.0,62,0.00,,,0.00,0.000000,,2013-04-06 13:03:00,
2013-04-06 09:13:00,35.0,23.0,-100.00,SSE,162,5.0,7.0,62,0.00,,,0.00,0.000000,,2013-04-06 13:13:00,
2013-04-06 09:23:00,35.0,23.0,-100.00,SSE,162,5.0,7.0,62,0.00,,,0.00,0.000000,,2013-04-06 13:23:00,
2013-04-06 09:32:00,35.0,23.0,-100.00,SSE,162,5.0,7.0,62,0.00,,,0.00,0.000000,,2013-04-06 13:32:00,
2013-04-06 09:53:00,36.0,25.0,-100.00,ENE,75,3.0,6.0,63,0.00,,,0.00,31.000000,,2013-04-06 13:53:00,
2013-04-06 10:04:00,36.0,25.0,-100.00,ENE,75,3.0,6.0,63,0.00,,,0.00,31.000000,,2013-04-06 14:04:00,
2013-04-06 10:12:00,36.0,25.0,-100.00,ENE,75,3.0,6.0,63,0.00,,,0.00,31.000000,,2013-04-06 14:12:00,
2013-04-06 10:22:00,36.0,25.0,-100.00,ENE,75,3.0,6.0,63,0.00,,,0.00,31.000000,,2013-04-06 14:22:00,
2013-04-06 10:32:00,36.0,25.0,-100.00,ENE,75,3.0,6.0,63,0.00,,,0.00,31.000000,,2013-04-06 14:32:00,
2013-04-06 11:02:00,47.0,28.0,-100.00,North,10,2.0,5.0,48,0.00,,,0.00,215.000000,,2013-04-06 15:02:00,
2013-04-06 11:12:00,47.0,28.0,-100.00,North,10,2.0,5.0,48,0.00,,,0.00,215.000000,,2013-04-06 15:12:00,
2013-04-06 11:23:00,47.0,28.0,-100.00,North,10,2.0,5.0,48,0.00,,,0.00,215.000000,,2013-04-06 15:23:00,
2013-04-06 11:33:00,47.0,28.0,-100.00,North,10,2.0,5.0,48,0.00,,,0.00,215.000000,,2013-04-06 15:33:00,
2013-04-06 11:53:00,56.0,29.0,-100.00,West,280,3.0,5.0,36,0.00,,,0.00,411.000000,,2013-04-06 15:53:00,
2013-04-06 12:05:00,56.0,29.0,-100.00,West,280,3.0,5.0,36,0.00,,,0.00,411.000000,,2013-04-06 16:05:00,
2013-04-06 12:17:00,56.0,29.0,-100.00,West,280,3.0,5.0,36,0.00,,,0.00,411.000000,,2013-04-06 16:17:00,
2013-04-06 12:23:00,56.0,29.0,-100.00,West,280,3.0,5.0,36,0.00,,,0.00,411.000000,,2013-04-06 16:23:00,
2013-04-06 12:32:00,56.0,29.0,-100.00,West,280,3.0,5.0,36,0.00,,,0.00,411.000000,,2013-04-06 16:32:00,
2013-04-06 12:53:00,55.0,26.0,-100.00,WSW,242,5.0,9.0,33,0.00,,,0.00,426.000000,,2013-04-06 16:53:00,
2013-04-06 13:03:00,55.0,26.0,-100.00,WSW,242,5.0,9.0,33,0.00,,,0.00,426.000000,,2013-04-06 17:03:00,
2013-04-06 13:12:00,55.0,26.0,-100.00,WSW,242,5.0,9.0,33,0.00,,,0.00,426.000000,,2013-04-06 17:12:00,
2013-04-06 13:22:00,55.0,26.0,-100.00,WSW,242,5.0,9.0,33,0.00,,,0.00,426.000000,,2013-04-06 17:22:00,
2013-04-06 13:32:00,55.0,26.0,-100.00,WSW,242,5.0,9.0,33,0.00,,,0.00,426.000000,,2013-04-06 17:32:00,
2013-04-06 13:52:00,58.0,27.0,-100.00,West,271,6.0,12.0,30,0.00,,,0.00,496.000000,,2013-04-06 17:52:00,
2013-04-06 14:03:00,58.0,27.0,-100.00,West,271,6.0,12.0,30,0.00,,,0.00,496.000000,,2013-04-06 18:03:00,
2013-04-06 14:12:00,58.0,27.0,-100.00,West,271,6.0,12.0,30,0.00,,,0.00,496.000000,,2013-04-06 18:12:00,
2013-04-06 14:23:00,58.0,27.0,-100.00,West,271,6.0,12.0,30,0.00,,,0.00,496.000000,,2013-04-06 18:23:00,
2013-04-06 14:32:00,58.0,27.0,-100.00,West,271,6.0,12.0,30,0.00,,,0.00,496.000000,,2013-04-06 18:32:00,
2013-04-06 14:52:00,62.0,24.0,-100.00,SW,221,11.0,18.0,23,0.00,,,0.00,795.000000,,2013-04-06 18:52:00,
2013-04-06 15:03:00,62.0,24.0,-100.00,SW,221,11.0,18.0,23,0.00,,,0.00,795.000000,,2013-04-06 19:03:00,
2013-04-06 15:12:00,62.0,24.0,-100.00,SW,221,11.0,18.0,23,0.00,,,0.00,795.000000,,2013-04-06 19:12:00,
2013-04-06 15:23:00,62.0,24.0,-100.00,SW,221,11.0,18.0,23,0.00,,,0.00,795.000000,,2013-04-06 19:23:00,
2013-04-06 15:32:00,62.0,24.0,-100.00,SW,221,11.0,18.0,23,0.00,,,0.00,795.000000,,2013-04-06 19:32:00,
2013-04-06 15:54:00,64.0,23.0,-100.00,WSW,248,9.0,20.0,21,0.00,,,0.00,859.000000,,2013-04-06 19:54:00,
2013-04-06 16:03:00,64.0,23.0,-100.00,WSW,248,9.0,20.0,21,0.00,,,0.00,859.000000,,2013-04-06 20:03:00,
2013-04-06 16:12:00,64.0,23.0,-100.00,WSW,248,9.0,20.0,21,0.00,,,0.00,859.000000,,2013-04-06 20:12:00,
2013-04-06 16:22:00,64.0,23.0,-100.00,WSW,248,9.0,20.0,21,0.00,,,0.00,859.000000,,2013-04-06 20:22:00,
2013-04-06 16:32:00,64.0,23.0,-100.00,WSW,248,9.0,20.0,21,0.00,,,0.00,859.000000,,2013-04-06 20:32:00,
2013-04-06 16:53:00,66.0,21.0,-100.00,WNW,284,12.0,22.0,18,0.00,,,0.00,808.000000,,2013-04-06 20:53:00,
2013-04-06 17:02:00,66.0,21.0,-100.00,WNW,284,12.0,22.0,18,0.00,,,0.00,808.000000,,2013-04-06 21:02:00,
2013-04-06 17:13:00,66.0,21.0,-100.00,WNW,284,12.0,22.0,18,0.00,,,0.00,808.000000,,2013-04-06 21:13:00,
2013-04-06 17:22:00,66.0,21.0,-100.00,WNW,284,12.0,22.0,18,0.00,,,0.00,808.000000,,2013-04-06 21:22:00,
2013-04-06 17:33:00,66.0,21.0,-100.00,WNW,284,12.0,22.0,18,0.00,,,0.00,808.000000,,2013-04-06 21:33:00,
2013-04-06 17:34:00,65.0,20.0,-100.00,WSW,237,10.0,20.0,18,0.00,,,0.00,550.000000,,2013-04-06 21:34:00,
2013-04-06 17:53:00,65.0,20.0,-100.00,WSW,237,10.0,20.0,18,0.00,,,0.00,550.000000,,2013-04-06 21:53:00,
2013-04-06 18:03:00,65.0,20.0,-100.00,WSW,237,10.0,20.0,18,0.00,,,0.00,550.000000,,2013-04-06 22:03:00,
2013-04-06 18:13:00,65.0,20.0,-100.00,WSW,237,10.0,20.0,18,0.00,,,0.00,550.000000,,2013-04-06 22:13:00,
2013-04-06 18:23:00,65.0,20.0,-100.00,WSW,237,10.0,20.0,18,0.00,,,0.00,550.000000,,2013-04-06 22:23:00,
2013-04-06 18:34:00,63.0,16.0,-100.00,SW,231,8.0,25.0,16,0.00,,,0.00,421.000000,,2013-04-06 22:34:00,
2013-04-06 18:54:00,63.0,16.0,-100.00,SW,231,8.0,25.0,16,0.00,,,0.00,421.000000,,2013-04-06 22:54:00,
2013-04-06 19:03:00,63.0,16.0,-100.00,SW,231,8.0,25.0,16,0.00,,,0.00,421.000000,,2013-04-06 23:03:00,
2013-04-06 19:13:00,63.0,16.0,-100.00,SW,231,8.0,25.0,16,0.00,,,0.00,421.000000,,2013-04-06 23:13:00,
2013-04-06 19:23:00,63.0,16.0,-100.00,SW,231,8.0,25.0,16,0.00,,,0.00,421.000000,,2013-04-06 23:23:00,
2013-04-06 19:53:00,64.0,18.0,-100.00,West,267,9.0,17.0,17,0.00,,,0.00,197.000000,,2013-04-06 23:53:00,
2013-04-06 20:02:00,64.0,18.0,-100.00,West,267,9.0,17.0,17,0.00,,,0.00,197.000000,,2013-04-07 00:02:00,
2013-04-06 20:13:00,64.0,18.0,-100.00,West,267,9.0,17.0,17,0.00,,,0.00,197.000000,,2013-04-07 00:13:00,
2013-04-06 20:22:00,64.0,18.0,-100.00,West,267,9.0,17.0,17,0.00,,,0.00,197.000000,,2013-04-07 00:22:00,
2013-04-06 20:32:00,64.0,18.0,-100.00,West,267,9.0,17.0,17,0.00,,,0.00,197.000000,,2013-04-07 00:32:00,
2013-04-06 20:53:00,62.0,17.0,-100.00,West,269,9.0,20.0,17,0.00,,,0.00,176.000000,,2013-04-07 00:53:00,
2013-04-06 21:02:00,62.0,17.0,-100.00,West,269,9.0,20.0,17,0.00,,,0.00,176.000000,,2013-04-07 01:02:00,
2013-04-06 21:12:00,62.0,17.0,-100.00,West,269,9.0,20.0,17,0.00,,,0.00,176.000000,,2013-04-07 01:12:00,
2013-04-06 21:23:00,62.0,17.0,-100.00,West,269,9.0,20.0,17,0.00,,,0.00,176.000000,,2013-04-07 01:23:00,
2013-04-06 21:32:00,62.0,17.0,-100.00,West,269,9.0,20.0,17,0.00,,,0.00,176.000000,,2013-04-07 01:32:00,
2013-04-06 21:53:00,60.0,18.0,-100.00,WNW,298,9.0,16.0,19,0.00,,,-99.99,56.000000,,2013-04-07 01:53:00,
2013-04-06 22:03:00,60.0,18.0,-100.00,WNW,298,9.0,16.0,19,0.00,,,-99.99,56.000000,,2013-04-07 02:03:00,
2013-04-06 22:12:00,60.0,18.0,-100.00,WNW,298,9.0,16.0,19,0.00,,,-99.99,56.000000,,2013-04-07 02:12:00,
2013-04-06 22:23:00,60.0,18.0,-100.00,WNW,298,9.0,16.0,19,0.00,,,-99.99,56.000000,,2013-04-07 02:23:00,
2013-04-06 22:32:00,60.0,18.0,-100.00,WNW,298,9.0,16.0,19,0.00,,,-99.99,56.000000,,2013-04-07 02:32:00,
2013-04-06 22:34:00,55.0,17.0,-100.00,North,6,4.0,12.0,22,0.00,,,0.00,0.000000,,2013-04-07 02:34:00,
2013-04-06 22:52:00,55.0,17.0,-100.00,North,6,4.0,12.0,22,0.00,,,0.00,0.000000,,2013-04-07 02:52:00,
2013-04-06 23:02:00,55.0,17.0,-100.00,North,6,4.0,12.0,22,0.00,,,0.00,0.000000,,2013-04-07 03:02:00,
2013-04-06 23:12:00,55.0,17.0,-100.00,North,6,4.0,12.0,22,0.00,,,0.00,0.000000,,2013-04-07 03:12:00,
2013-04-06 23:22:00,55.0,17.0,-100.00,North,6,4.0,12.0,22,0.00,,,0.00,0.000000,,2013-04-07 03:22:00,
2013-04-06 23:54:00,53.0,18.0,-100.00,South,171,5.0,7.0,25,0.00,,,0.00,0.000000,,2013-04-07 03:54:00,